Barro Alto, Brazil
Current Conditions -  °F | °C
As of 10:00 AM on Sunday 25 Jan 2015 (Local Time) from SBAN Reporting Station
Broken Clouds Broken Clouds  
Wind Chill: 66°   Ceiling: 8000
Heat Index: 66°   Visibility: 6mi
Dew Point: 61°   Wind: 6mph
Humidity: 83%   Direction: 70°ENE
Pressure: 30.15"   Gusts: NA
Location:  14.97°S, 48.92°W
Report Text: SBAN 251200Z 07005KT 9999 FEW015 BKN080 19/16 Q1021
Loading
Personal Weather Stations






























Interactive Weather Map New forecast layout! Learn more

10-Day Weather Forecast

Advertisements
Track Severe Weather on mobile